Time;durP1;ratioP1;P1;durP2;ratioP2;P2;SDS_P1;SDS_P2;PMS_P1;PMS_P2;Temp;Humidity;BMP_temperature;BMP_pressure;BME280_temperature;BME280_humidity;BME280_pressure;Samples;Min_cycle;Max_cycle;Signal;HPM_P1;HPM_P2
2022/05/23 00:00:44;;;;;;;1.50;1.40;;;25.00;47.20;;;;;;4933807;29;20521;-69
2022/05/23 00:03:27;;;;;;;;;;;;;;;;;;;;;
2022/05/23 00:06:05;;;;;;;2.13;1.60;;;24.80;46.40;;;;;;4940231;29;20457;-69
2022/05/23 00:08:38;;;;;;;1.63;1.53;;;24.90;45.60;;;;;;4928359;29;20447;-69
2022/05/23 00:11:10;;;;;;;1.60;1.50;;;24.90;46.10;;;;;;4930609;29;20489;-69
2022/05/23 00:13:42;;;;;;;1.80;1.70;;;24.80;48.20;;;;;;4945505;29;20478;-69
2022/05/23 00:16:19;;;;;;;1.80;1.70;;;24.80;49.10;;;;;;4786523;29;4361930;-69
2022/05/23 00:18:54;;;;;;;2.07;1.90;;;24.90;48.10;;;;;;4929593;29;20216;-69
2022/05/23 00:21:37;;;;;;;1.47;1.37;;;24.90;45.30;;;;;;4928603;29;20454;-71
2022/05/23 00:24:08;;;;;;;1.50;1.40;;;24.90;44.90;;;;;;4930782;29;20453;-69
2022/05/23 00:26:41;;;;;;;1.87;1.40;;;24.80;44.70;;;;;;4937197;29;20461;-70
2022/05/23 00:29:14;;;;;;;1.73;1.63;;;24.90;45.70;;;;;;4942982;29;20459;-70
2022/05/23 00:37:27;;;;;;;1.60;1.43;;;24.90;43.30;;;;;;4937578;29;21035;-70
2022/05/23 00:40:01;;;;;;;2.23;2.07;;;24.80;43.80;;;;;;4941653;29;20459;-70
2022/05/23 00:45:44;;;;;;;2.37;2.17;;;24.80;47.00;;;;;;4914174;29;20478;-71
2022/05/23 00:48:19;;;;;;;4.00;2.80;;;24.50;47.70;;;;;;4918284;29;20476;-67
2022/05/23 00:50:55;;;;;;;2.67;2.43;;;24.50;45.50;;;;;;4921374;29;20502;-68
2022/05/23 00:53:39;;;;;;;1.80;1.70;;;24.50;46.80;;;;;;4910077;29;20459;-69
2022/05/23 00:56:44;;;;;;;1.80;1.70;;;24.50;46.90;;;;;;4912491;29;20466;-72
2022/05/23 00:59:20;;;;;;;1.70;1.60;;;24.40;46.90;;;;;;4917007;29;20598;-69
2022/05/23 01:01:55;;;;;;;1.90;1.80;;;24.30;45.80;;;;;;4921208;29;20478;-68
2022/05/23 01:04:32;;;;;;;2.37;1.97;;;24.20;45.70;;;;;;4915318;29;20475;-68
2022/05/23 01:07:05;;;;;;;2.60;2.30;;;24.20;44.50;;;;;;4915759;29;20660;-70
2022/05/23 01:09:41;;;;;;;2.13;1.67;;;24.50;43.50;;;;;;4921267;29;20474;-69
2022/05/23 01:12:19;;;;;;;1.47;1.37;;;24.50;45.20;;;;;;4913277;29;20502;-68
2022/05/23 01:14:53;;;;;;;1.43;1.33;;;24.40;46.80;;;;;;4918322;29;20509;-68
2022/05/23 01:17:24;;;;;;;1.50;1.40;;;24.10;43.70;;;;;;4932719;29;20470;-69
2022/05/23 01:19:56;;;;;;;3.97;3.67;;;24.00;44.30;;;;;;4936184;29;20484;-68
2022/05/23 01:22:38;;;;;;;3.13;2.93;;;23.90;44.70;;;;;;4935559;29;20550;-68
2022/05/23 01:25:18;;;;;;;2.50;2.30;;;23.90;45.20;;;;;;4937946;29;20468;-67
2022/05/23 01:27:53;;;;;;;1.90;1.80;;;23.70;43.50;;;;;;4939108;29;20478;-68
2022/05/23 01:30:27;;;;;;;2.50;2.30;;;23.80;42.60;;;;;;4940006;29;20469;-68
2022/05/23 01:33:01;;;;;;;1.60;1.43;;;23.80;42.00;;;;;;4943018;29;20492;-70
2022/05/23 01:35:38;;;;;;;1.60;1.50;;;24.00;39.90;;;;;;4945149;29;20466;-72
2022/05/23 01:38:22;;;;;;;1.27;1.20;;;23.90;42.00;;;;;;4928650;29;20458;-71
2022/05/23 01:40:58;;;;;;;2.00;1.80;;;23.80;42.90;;;;;;4941814;29;20521;-71
2022/05/23 01:43:30;;;;;;;1.70;1.60;;;23.80;43.60;;;;;;4936103;29;20506;-70
2022/05/23 01:46:07;;;;;;;2.30;2.20;;;23.70;43.20;;;;;;4943192;29;20554;-67
2022/05/23 01:48:41;;;;;;;2.20;2.10;;;23.80;40.70;;;;;;4940121;29;20536;-68
2022/05/23 01:51:14;;;;;;;4.17;3.97;;;23.70;45.20;;;;;;4935519;29;20820;-66
2022/05/23 01:53:47;;;;;;;1.93;1.70;;;23.60;43.90;;;;;;4939455;29;20454;-68
2022/05/23 01:56:21;;;;;;;1.50;1.40;;;23.50;45.30;;;;;;4934619;29;20459;-68
2022/05/23 02:01:48;;;;;;;2.40;1.70;;;23.40;45.50;;;;;;4942874;29;20919;-68
2022/05/23 02:04:21;;;;;;;1.20;1.20;;;23.30;51.80;;;;;;4946257;29;20472;-68
2022/05/23 02:06:54;;;;;;;1.50;1.40;;;23.20;46.70;;;;;;4939547;29;20465;-69
2022/05/23 02:09:27;;;;;;;1.97;1.20;;;23.10;45.40;;;;;;4936643;29;20500;-68
2022/05/23 02:12:08;;;;;;;1.50;1.40;;;23.10;44.40;;;;;;4927160;29;20490;-68
2022/05/23 02:14:41;;;;;;;1.50;1.40;;;23.10;43.80;;;;;;4932586;29;20521;-66
2022/05/23 02:17:13;;;;;;;1.40;1.30;;;23.00;47.00;;;;;;4928567;29;20486;-68
2022/05/23 02:19:46;;;;;;;1.50;1.40;;;23.00;42.30;;;;;;4944419;29;20442;-66
2022/05/23 02:22:19;;;;;;;1.83;1.73;;;22.90;45.20;;;;;;4938107;29;20465;-68
2022/05/23 02:24:59;;;;;;;3.63;1.90;;;22.70;48.00;;;;;;4939281;29;20472;-69
2022/05/23 02:27:32;;;;;;;1.87;1.77;;;22.80;43.70;;;;;;4933388;29;20458;-69
2022/05/23 02:30:06;;;;;;;1.87;1.73;;;22.70;45.90;;;;;;4932330;29;20471;-68
2022/05/23 02:32:38;;;;;;;1.33;1.23;;;22.50;44.50;;;;;;4942342;29;20503;-68
2022/05/23 02:35:10;;;;;;;1.70;1.60;;;22.50;49.30;;;;;;4937702;29;21158;-67
2022/05/23 02:37:43;;;;;;;22.67;20.33;;;22.40;46.80;;;;;;4935315;29;20554;-67
2022/05/23 02:40:19;;;;;;;14.47;12.20;;;22.40;44.40;;;;;;4937786;29;20473;-67
2022/05/23 02:42:55;;;;;;;6.97;6.27;;;22.40;52.60;;;;;;4942647;29;20937;-68
2022/05/23 02:45:36;;;;;;;4.40;4.00;;;22.20;54.80;;;;;;4934334;29;20500;-68
2022/05/23 02:48:10;;;;;;;2.20;2.00;;;22.20;56.40;;;;;;4929860;29;20476;-68
2022/05/23 02:50:44;;;;;;;2.50;2.30;;;22.00;51.80;;;;;;4926403;29;20542;-68
2022/05/23 02:53:15;;;;;;;1.97;1.87;;;22.00;55.50;;;;;;4938385;29;20501;-67
2022/05/23 02:55:46;;;;;;;2.10;1.90;;;21.90;48.20;;;;;;4939678;29;20484;-69
2022/05/23 02:58:17;;;;;;;1.70;1.50;;;21.80;51.30;;;;;;4941049;29;20471;-68
2022/05/23 03:00:51;;;;;;;1.60;1.50;;;21.70;52.20;;;;;;4926779;29;20458;-69
2022/05/23 03:03:20;;;;;;;2.20;1.60;;;21.60;52.80;;;;;;4939331;29;20469;-69
2022/05/23 03:05:54;;;;;;;1.97;1.87;;;21.60;53.80;;;;;;4939867;29;20464;-69
2022/05/23 03:08:29;;;;;;;1.90;1.80;;;21.60;54.70;;;;;;4936609;29;20473;-69
2022/05/23 03:11:01;;;;;;;1.93;1.60;;;21.50;54.50;;;;;;4932867;29;20463;-69
2022/05/23 03:13:32;;;;;;;2.20;2.00;;;21.40;53.70;;;;;;4938332;29;20508;-68
2022/05/23 03:16:09;;;;;;;1.60;1.50;;;21.30;55.90;;;;;;4938664;29;20494;-68
2022/05/23 03:18:40;;;;;;;2.10;2.00;;;21.30;55.30;;;;;;4942353;29;21036;-69
2022/05/23 03:26:58;;;;;;;2.70;2.50;;;21.20;55.60;;;;;;4943347;29;20489;-67
2022/05/23 03:27:02;;;;;;;2.83;2.63;;;21.20;59.60;;;;;;4942419;29;20476;-69
2022/05/23 03:29:37;;;;;;;2.40;2.13;;;21.00;62.50;;;;;;4939042;29;20444;-68
2022/05/23 03:32:10;;;;;;;2.40;1.93;;;20.80;63.60;;;;;;4943319;29;20493;-69
2022/05/23 03:34:42;;;;;;;2.40;2.23;;;20.70;65.80;;;;;;4935941;29;20555;-71
2022/05/23 03:37:18;;;;;;;3.60;3.23;;;20.60;67.50;;;;;;4936998;29;20501;-68
2022/05/23 03:39:59;;;;;;;4.50;4.03;;;20.50;67.90;;;;;;4929016;29;20450;-69
2022/05/23 03:42:30;;;;;;;4.77;3.57;;;20.40;68.10;;;;;;4940290;29;20488;-66
2022/05/23 03:45:01;;;;;;;4.03;3.63;;;20.20;69.00;;;;;;4933226;29;20458;-68
2022/05/23 03:47:33;;;;;;;3.70;3.00;;;20.00;69.20;;;;;;4940286;29;20467;-68
2022/05/23 03:50:05;;;;;;;2.40;2.20;;;20.00;70.10;;;;;;4930521;29;20469;-68
2022/05/23 03:52:36;;;;;;;2.50;2.30;;;19.90;70.20;;;;;;4932236;29;20497;-69
2022/05/23 03:55:08;;;;;;;2.50;2.30;;;19.80;69.80;;;;;;4941636;29;20484;-68
2022/05/23 03:57:39;;;;;;;2.50;2.30;;;19.70;71.00;;;;;;4934871;29;20529;-68
2022/05/23 04:00:12;;;;;;;2.60;2.37;;;19.60;71.00;;;;;;4928514;29;20782;-68
2022/05/23 04:02:45;;;;;;;2.20;2.10;;;19.60;71.00;;;;;;4926222;29;20462;-67
2022/05/23 04:05:17;;;;;;;2.33;2.23;;;19.50;70.60;;;;;;4933877;29;21129;-67
2022/05/23 04:07:48;;;;;;;2.47;2.20;;;19.40;70.90;;;;;;4942439;29;20477;-67
2022/05/23 04:10:20;;;;;;;2.90;2.43;;;19.20;72.80;;;;;;4928030;29;20459;-67
2022/05/23 04:12:54;;;;;;;3.40;3.10;;;19.20;72.40;;;;;;4937292;29;20467;-67
2022/05/23 04:15:25;;;;;;;3.27;2.57;;;19.20;72.20;;;;;;4939919;29;20515;-67
2022/05/23 04:17:58;;;;;;;3.20;2.47;;;19.10;72.40;;;;;;4939821;29;20457;-69
2022/05/23 04:20:28;;;;;;;3.00;2.37;;;19.10;72.60;;;;;;4941704;29;20455;-66
2022/05/23 04:22:59;;;;;;;3.10;2.30;;;19.00;73.50;;;;;;4934068;29;20482;-67
2022/05/23 04:25:30;;;;;;;2.87;2.67;;;19.00;71.50;;;;;;4941869;29;20412;-67
2022/05/23 04:28:01;;;;;;;2.40;2.20;;;18.90;72.20;;;;;;4931537;29;20463;-67
2022/05/23 04:30:32;;;;;;;3.03;2.30;;;18.80;72.00;;;;;;4926012;29;20462;-67
2022/05/23 04:35:55;;;;;;;2.60;2.40;;;18.70;73.70;;;;;;4935525;29;20461;-68
2022/05/23 04:38:26;;;;;;;2.93;2.73;;;18.60;73.90;;;;;;4939384;29;20496;-67
2022/05/23 04:40:57;;;;;;;2.70;2.50;;;18.60;73.30;;;;;;4939461;29;20465;-66
2022/05/23 04:43:28;;;;;;;2.87;2.47;;;18.60;73.80;;;;;;4939223;29;20458;-68
2022/05/23 04:45:58;;;;;;;2.73;2.53;;;18.60;74.80;;;;;;4943150;29;20442;-68
2022/05/23 04:51:19;;;;;;;2.97;2.67;;;18.60;73.40;;;;;;4939469;29;20470;-69
2022/05/23 04:53:53;;;;;;;3.00;2.80;;;18.50;74.20;;;;;;4943941;29;20500;-68
2022/05/23 04:56:25;;;;;;;3.00;2.70;;;18.40;75.80;;;;;;4934101;29;20481;-68
2022/05/23 04:58:56;;;;;;;2.73;2.53;;;18.50;75.50;;;;;;4941584;29;20545;-69
2022/05/23 05:01:27;;;;;;;4.10;2.20;;;18.40;77.30;;;;;;4942824;29;20525;-69
2022/05/23 05:04:00;;;;;;;2.57;2.07;;;18.30;77.30;;;;;;4947413;29;20798;-68
2022/05/23 05:06:31;;;;;;;2.30;2.13;;;18.30;76.80;;;;;;4944262;29;20857;-68
2022/05/23 05:09:02;;;;;;;2.33;2.00;;;18.20;75.90;;;;;;4945850;29;20532;-68
2022/05/23 05:11:38;;;;;;;2.50;2.30;;;18.20;75.00;;;;;;4942578;29;20476;-67
2022/05/23 05:14:09;;;;;;;3.10;2.23;;;18.10;74.60;;;;;;4933284;29;20465;-68
2022/05/23 05:16:40;;;;;;;2.00;1.87;;;18.20;75.30;;;;;;4936355;29;20949;-68
2022/05/23 05:19:12;;;;;;;2.30;2.10;;;18.10;75.40;;;;;;4945139;29;20445;-67
2022/05/23 05:21:43;;;;;;;2.80;2.33;;;18.00;76.70;;;;;;4935600;29;20441;-67
2022/05/23 05:24:18;;;;;;;2.17;2.00;;;18.00;75.90;;;;;;4931114;29;20619;-68
2022/05/23 05:26:48;;;;;;;3.10;2.90;;;18.00;75.80;;;;;;4936647;29;20946;-67
2022/05/23 05:29:19;;;;;;;3.00;2.57;;;17.90;78.40;;;;;;4935376;29;20450;-67
2022/05/23 05:31:54;;;;;;;2.10;1.80;;;18.00;76.10;;;;;;4929091;29;20443;-68
2022/05/23 05:34:33;;;;;;;2.87;2.10;;;17.90;76.70;;;;;;4928570;29;20539;-68
2022/05/23 05:37:09;;;;;;;2.80;2.00;;;17.90;77.20;;;;;;4941599;29;20944;-68
2022/05/23 05:39:41;;;;;;;2.40;2.20;;;17.80;77.10;;;;;;4940716;29;20445;-68
2022/05/23 05:42:17;;;;;;;2.60;2.40;;;17.80;77.00;;;;;;4936572;29;20502;-68
2022/05/23 05:44:53;;;;;;;2.27;2.17;;;17.80;75.70;;;;;;4941981;29;20467;-68
2022/05/23 05:47:24;;;;;;;2.37;2.17;;;17.80;77.90;;;;;;4933506;29;20462;-68
2022/05/23 05:50:02;;;;;;;3.63;2.47;;;17.70;76.70;;;;;;4941608;29;20522;-69
2022/05/23 05:52:39;;;;;;;4.13;2.33;;;17.70;76.70;;;;;;4942995;29;20469;-68
2022/05/23 05:55:12;;;;;;;2.53;1.90;;;17.60;77.10;;;;;;4937916;29;20466;-68
2022/05/23 05:57:43;;;;;;;2.23;2.10;;;17.50;76.60;;;;;;4940049;29;20465;-68
2022/05/23 06:00:15;;;;;;;2.90;2.70;;;17.50;78.60;;;;;;4935099;29;20472;-68
2022/05/23 06:02:46;;;;;;;2.37;1.80;;;17.40;78.70;;;;;;4928045;29;20447;-69
2022/05/23 06:05:19;;;;;;;3.47;2.10;;;17.40;78.00;;;;;;4928425;29;20444;-68
2022/05/23 06:13:40;;;;;;;2.23;2.03;;;17.30;79.80;;;;;;4902573;29;20609;-68
2022/05/23 06:16:11;;;;;;;3.33;2.17;;;17.20;80.30;;;;;;4905005;29;20512;-68
2022/05/23 06:18:41;;;;;;;2.70;2.50;;;17.10;81.20;;;;;;4906256;29;20899;-68
2022/05/23 06:21:14;;;;;;;1.80;1.70;;;17.10;81.40;;;;;;4905290;29;20479;-68
2022/05/23 06:23:47;;;;;;;2.30;2.10;;;17.10;80.90;;;;;;4903841;29;20466;-68
2022/05/23 06:26:21;;;;;;;4.90;2.90;;;17.10;82.60;;;;;;4904056;29;20483;-67
2022/05/23 06:28:52;;;;;;;2.30;2.10;;;17.00;83.10;;;;;;4906112;29;20467;-68
2022/05/23 06:31:24;;;;;;;2.30;2.10;;;17.00;82.10;;;;;;4904773;29;20477;-67
2022/05/23 06:33:54;;;;;;;3.73;1.93;;;16.90;83.90;;;;;;4904725;29;20594;-68
2022/05/23 06:36:27;;;;;;;2.33;2.20;;;16.90;84.20;;;;;;4903958;29;20619;-67
2022/05/23 06:38:58;;;;;;;2.93;2.67;;;16.80;84.80;;;;;;4905242;29;20460;-67
2022/05/23 06:41:29;;;;;;;4.17;2.43;;;16.80;85.70;;;;;;4903974;29;20446;-68
2022/05/23 06:43:59;;;;;;;2.70;2.33;;;16.60;87.70;;;;;;4911095;29;20454;-67
2022/05/23 06:46:32;;;;;;;4.53;2.80;;;16.70;86.90;;;;;;4936101;29;20469;-68
2022/05/23 06:49:03;;;;;;;2.67;2.47;;;16.70;86.90;;;;;;4938333;29;20981;-68
2022/05/23 06:51:35;;;;;;;2.73;2.53;;;16.70;87.90;;;;;;4938305;29;20469;-68
2022/05/23 06:54:06;;;;;;;2.97;2.67;;;16.50;90.00;;;;;;4936322;29;20500;-69
2022/05/23 06:56:37;;;;;;;2.70;2.50;;;16.40;91.00;;;;;;4937380;29;20474;-68
2022/05/23 06:59:09;;;;;;;2.80;2.60;;;16.20;91.90;;;;;;4944491;29;20466;-67
2022/05/23 07:01:40;;;;;;;3.20;2.90;;;16.20;92.20;;;;;;4940851;29;20466;-68
2022/05/23 07:04:11;;;;;;;3.27;2.97;;;16.20;94.00;;;;;;4937004;29;20477;-68
2022/05/23 07:12:29;;;;;;;4.20;3.63;;;15.90;95.80;;;;;;4942261;29;20493;-67
2022/05/23 07:15:00;;;;;;;3.13;2.93;;;15.80;97.10;;;;;;4927356;29;20505;-68
2022/05/23 07:17:31;;;;;;;3.70;3.40;;;15.70;98.00;;;;;;4940411;29;20470;-67
2022/05/23 07:20:05;;;;;;;3.50;3.20;;;15.60;99.70;;;;;;4943586;29;20958;-67
2022/05/23 07:22:41;;;;;;;4.37;3.37;;;15.50;98.50;;;;;;4937913;29;20495;-68
2022/05/23 07:25:13;;;;;;;2.90;2.70;;;15.50;99.20;;;;;;4933951;29;20470;-67
2022/05/23 07:27:44;;;;;;;3.70;3.40;;;15.50;99.20;;;;;;4936151;29;20470;-67
2022/05/23 07:30:15;;;;;;;3.43;3.13;;;15.40;99.90;;;;;;4943380;29;20476;-67
2022/05/23 07:32:46;;;;;;;4.27;2.93;;;15.50;99.90;;;;;;4943540;29;20466;-68
2022/05/23 07:35:19;;;;;;;3.43;3.13;;;15.40;99.90;;;;;;4935569;29;20516;-68
2022/05/23 07:37:53;;;;;;;3.07;2.87;;;15.30;99.90;;;;;;4938172;29;20504;-69
2022/05/23 07:40:24;;;;;;;3.37;3.10;;;15.20;99.90;;;;;;4938418;29;20466;-68
2022/05/23 07:42:55;;;;;;;3.93;3.53;;;15.10;99.90;;;;;;4941457;29;20460;-67
2022/05/23 07:45:26;;;;;;;3.37;3.07;;;15.00;99.90;;;;;;4936872;29;20475;-68
2022/05/23 07:47:57;;;;;;;4.23;3.50;;;14.90;99.90;;;;;;4938364;29;20521;-68
2022/05/23 07:50:28;;;;;;;3.63;3.33;;;14.90;99.90;;;;;;4943443;29;20470;-68
2022/05/23 08:01:24;;;;;;;4.17;3.70;;;14.70;99.90;;;;;;4937697;29;20465;-69
2022/05/23 08:03:54;;;;;;;3.87;3.47;;;14.70;99.90;;;;;;4941615;29;20464;-68
2022/05/23 08:06:26;;;;;;;3.40;3.10;;;14.70;99.90;;;;;;4938134;29;20486;-68
2022/05/23 08:08:58;;;;;;;3.20;2.97;;;14.70;99.90;;;;;;4943248;29;20477;-68
2022/05/23 08:11:29;;;;;;;3.50;3.10;;;14.80;99.90;;;;;;4943654;29;20698;-68
2022/05/23 08:14:00;;;;;;;3.67;2.43;;;14.90;99.90;;;;;;4939420;29;20466;-68
2022/05/23 08:16:31;;;;;;;3.80;3.10;;;14.80;99.90;;;;;;4933968;29;20494;-68
2022/05/23 08:19:02;;;;;;;2.60;2.40;;;14.90;99.90;;;;;;4946399;29;20520;-68
2022/05/23 08:21:33;;;;;;;3.73;2.93;;;15.00;99.90;;;;;;4932194;29;20489;-68
2022/05/23 08:24:06;;;;;;;3.50;3.17;;;15.00;99.90;;;;;;4934743;29;20470;-68
2022/05/23 08:26:36;;;;;;;4.10;3.00;;;15.10;99.90;;;;;;4943854;29;20529;-68
2022/05/23 08:29:07;;;;;;;3.67;3.00;;;15.10;99.90;;;;;;4940464;29;20462;-68
2022/05/23 08:31:39;;;;;;;3.37;2.93;;;15.10;99.90;;;;;;4944199;29;20460;-68
2022/05/23 08:34:10;;;;;;;3.30;2.80;;;15.10;99.90;;;;;;4947546;29;20481;-67
2022/05/23 08:36:41;;;;;;;2.97;2.77;;;15.10;99.90;;;;;;4942795;29;20473;-68
2022/05/23 08:39:14;;;;;;;3.53;3.10;;;15.20;99.90;;;;;;4931313;29;20791;-68
2022/05/23 08:41:49;;;;;;;3.17;2.97;;;15.20;99.90;;;;;;4942644;29;20466;-69
2022/05/23 08:44:28;;;;;;;3.10;2.60;;;15.10;99.90;;;;;;4938648;29;20473;-69
2022/05/23 08:47:05;;;;;;;5.77;3.50;;;15.20;99.90;;;;;;4939506;29;20690;-68
2022/05/23 08:49:47;;;;;;;2.93;2.67;;;15.20;99.90;;;;;;4932723;29;20457;-68
2022/05/23 08:52:23;;;;;;;2.83;2.57;;;15.20;99.90;;;;;;4942573;29;20479;-68
2022/05/23 08:55:02;;;;;;;2.87;2.63;;;15.20;99.90;;;;;;4933068;29;20494;-68
2022/05/23 08:57:39;;;;;;;2.97;2.67;;;15.10;99.90;;;;;;4937549;29;20465;-68
2022/05/23 09:00:14;;;;;;;2.60;2.40;;;15.10;99.90;;;;;;4944941;29;20471;-69
2022/05/23 09:02:49;;;;;;;2.97;2.77;;;15.10;99.90;;;;;;4942174;29;20467;-68
2022/05/23 09:05:23;;;;;;;3.13;2.80;;;15.10;99.90;;;;;;4941213;29;20962;-69
2022/05/23 09:08:18;;;;;;;3.30;3.10;;;15.20;99.90;;;;;;4945999;29;20458;-68
2022/05/23 09:10:55;;;;;;;3.70;2.80;;;15.20;99.90;;;;;;4943028;29;20953;-69
2022/05/23 09:13:30;;;;;;;3.10;2.50;;;15.10;99.90;;;;;;4941494;29;21010;-68
2022/05/23 09:16:04;;;;;;;3.20;2.60;;;15.10;99.90;;;;;;4943514;29;20516;-68
2022/05/23 09:18:44;;;;;;;2.80;2.60;;;15.00;99.90;;;;;;4939517;29;20904;-69
2022/05/23 09:21:15;;;;;;;3.27;3.07;;;15.00;99.90;;;;;;4932050;29;20474;-69
2022/05/23 09:23:50;;;;;;;3.77;2.63;;;14.90;99.90;;;;;;4943366;29;20459;-68
2022/05/23 09:26:29;;;;;;;3.67;3.00;;;14.90;99.90;;;;;;4932659;29;20454;-68
2022/05/23 09:29:00;;;;;;;4.10;2.90;;;14.90;99.90;;;;;;4930828;29;20532;-69
2022/05/23 09:31:39;;;;;;;5.23;3.13;;;14.90;99.90;;;;;;4938275;29;20465;-68
2022/05/23 09:34:30;;;;;;;3.87;3.07;;;14.90;99.90;;;;;;4935275;29;20529;-68
2022/05/23 09:37:01;;;;;;;3.47;2.80;;;14.90;99.90;;;;;;4936816;29;20490;-68
2022/05/23 09:39:34;;;;;;;4.73;2.70;;;14.80;99.90;;;;;;4930213;29;20553;-68
2022/05/23 09:48:13;;;;;;;2.90;2.70;;;14.80;99.90;;;;;;4946359;29;20461;-68
2022/05/23 09:50:46;;;;;;;6.53;4.30;;;14.80;99.90;;;;;;4939771;29;20473;-68
2022/05/23 09:53:22;;;;;;;3.37;3.00;;;14.80;99.90;;;;;;4941948;29;20475;-68
2022/05/23 09:56:25;;;;;;;2.93;2.73;;;14.80;99.90;;;;;;4929916;29;20516;-68
2022/05/23 09:58:59;;;;;;;3.73;3.43;;;14.70;99.90;;;;;;4935471;29;20457;-68
2022/05/23 10:01:32;;;;;;;3.53;3.23;;;14.60;99.90;;;;;;4938954;29;20447;-68
2022/05/23 10:04:03;;;;;;;3.17;2.97;;;14.60;99.90;;;;;;4944096;29;20488;-68
2022/05/23 10:06:36;;;;;;;3.80;3.50;;;14.70;99.90;;;;;;4939357;29;20473;-67
2022/05/23 10:09:10;;;;;;;3.20;3.00;;;14.60;99.90;;;;;;4944683;29;20464;-68
2022/05/23 10:11:41;;;;;;;4.37;4.07;;;14.60;99.90;;;;;;4935674;29;20477;-68
2022/05/23 10:14:19;;;;;;;4.20;3.43;;;14.60;99.90;;;;;;4941628;29;20461;-69
2022/05/23 10:16:52;;;;;;;3.80;3.40;;;14.50;99.90;;;;;;4937245;29;20839;-69
2022/05/23 10:19:33;;;;;;;4.10;3.73;;;14.50;99.90;;;;;;4945095;29;20465;-68
2022/05/23 10:22:17;;;;;;;4.20;3.80;;;14.50;99.90;;;;;;4936667;29;20565;-68
2022/05/23 10:24:54;;;;;;;3.73;3.43;;;14.50;99.90;;;;;;4935754;29;20472;-69
2022/05/23 10:27:39;;;;;;;4.50;4.20;;;14.50;99.90;;;;;;4936950;29;20946;-69
2022/05/23 10:30:16;;;;;;;4.00;3.60;;;14.40;99.90;;;;;;4940336;29;20462;-68
2022/05/23 10:32:54;;;;;;;4.67;4.30;;;14.40;99.90;;;;;;4936756;29;20478;-68
2022/05/23 10:35:29;;;;;;;4.40;4.10;;;14.40;99.90;;;;;;4934771;29;20877;-69
2022/05/23 10:42:07;;;;;;;4.60;4.07;;;14.30;99.90;;;;;;4938632;29;20483;-68
2022/05/23 10:44:02;;;;;;;4.40;4.00;;;14.20;99.90;;;;;;4939657;29;20474;-68
2022/05/23 10:46:37;;;;;;;4.77;4.30;;;14.10;99.90;;;;;;4944215;29;20477;-67
2022/05/23 10:49:36;;;;;;;5.30;4.57;;;14.00;99.90;;;;;;4939726;29;20549;-67
2022/05/23 10:52:15;;;;;;;4.63;4.23;;;13.90;99.90;;;;;;4943849;29;20462;-68
2022/05/23 10:54:55;;;;;;;5.37;4.33;;;13.80;99.90;;;;;;4939266;29;20981;-67
2022/05/23 10:57:37;;;;;;;4.40;4.00;;;13.80;99.90;;;;;;4943662;29;20497;-68
2022/05/23 11:00:14;;;;;;;8.77;4.10;;;13.70;99.90;;;;;;4933620;29;20467;-67
2022/05/23 11:02:57;;;;;;;4.90;4.40;;;13.70;99.90;;;;;;4940637;29;20466;-68
2022/05/23 11:05:33;;;;;;;4.90;4.40;;;13.70;99.90;;;;;;4937940;29;20474;-68
2022/05/23 11:08:17;;;;;;;4.93;4.37;;;13.70;99.90;;;;;;4934620;29;20477;-69
2022/05/23 11:10:55;;;;;;;4.63;4.23;;;13.70;99.90;;;;;;4929817;29;20946;-68
2022/05/23 11:13:45;;;;;;;5.07;4.57;;;13.70;99.90;;;;;;4944186;29;20470;-68
2022/05/23 11:16:27;;;;;;;4.93;4.40;;;13.60;99.90;;;;;;4931796;29;20510;-68
2022/05/23 11:19:22;;;;;;;5.00;4.60;;;13.70;99.90;;;;;;4934928;29;20540;-68
2022/05/23 11:22:02;;;;;;;4.80;4.50;;;13.60;99.90;;;;;;4939384;29;20533;-67
2022/05/23 11:24:41;;;;;;;5.17;4.73;;;13.60;99.90;;;;;;4935054;29;20896;-67
2022/05/23 11:35:56;;;;;;;5.63;4.73;;;13.60;99.90;;;;;;4943118;29;20494;-67
2022/05/23 11:38:29;;;;;;;4.70;4.30;;;13.70;99.90;;;;;;4938240;29;20464;-67
2022/05/23 11:41:09;;;;;;;5.97;5.07;;;13.60;99.90;;;;;;4938097;29;20506;-67
2022/05/23 11:43:40;;;;;;;4.70;4.30;;;13.70;99.90;;;;;;4934584;29;20462;-68
2022/05/23 11:46:15;;;;;;;5.77;5.17;;;13.60;99.90;;;;;;4938866;29;20813;-68
2022/05/23 11:49:00;;;;;;;4.93;4.53;;;13.60;99.90;;;;;;4935845;29;20469;-67
2022/05/23 11:51:38;;;;;;;4.93;4.53;;;13.60;99.90;;;;;;4937297;29;20484;-68
2022/05/23 11:54:15;;;;;;;5.27;4.83;;;13.70;99.90;;;;;;4936663;29;20501;-68
2022/05/23 11:57:05;;;;;;;4.80;4.40;;;13.70;99.90;;;;;;4941507;29;20522;-68
2022/05/23 12:00:01;;;;;;;5.03;4.60;;;13.70;99.90;;;;;;4945517;29;20481;-68
2022/05/23 12:02:33;;;;;;;5.40;4.83;;;13.70;99.90;;;;;;4944107;29;20870;-68
2022/05/23 12:05:14;;;;;;;5.07;4.57;;;13.60;99.90;;;;;;4936480;29;20466;-69
2022/05/23 12:08:08;;;;;;;5.10;4.70;;;13.60;99.90;;;;;;4944553;29;20492;-68
2022/05/23 12:10:58;;;;;;;5.10;4.70;;;13.70;99.90;;;;;;4938084;29;20465;-68
2022/05/23 12:13:48;;;;;;;4.53;4.20;;;13.70;99.90;;;;;;4945558;29;20541;-68
2022/05/23 12:16:35;;;;;;;4.73;4.20;;;13.70;99.90;;;;;;4938106;29;20501;-68
2022/05/23 12:19:38;;;;;;;5.40;4.90;;;13.70;99.90;;;;;;4945172;29;20493;-68
2022/05/23 12:22:32;;;;;;;4.60;4.20;;;13.70;99.90;;;;;;4936563;29;20545;-68
2022/05/23 12:25:25;;;;;;;4.97;4.50;;;13.70;99.90;;;;;;4946517;29;20480;-68
2022/05/23 12:28:20;;;;;;;5.47;4.97;;;13.60;99.90;;;;;;4942492;29;20480;-68
2022/05/23 12:31:15;;;;;;;5.00;4.60;;;13.70;99.90;;;;;;4940155;29;20541;-68
2022/05/23 12:34:07;;;;;;;4.83;4.33;;;13.70;99.90;;;;;;4938530;29;20481;-68
2022/05/23 12:36:48;;;;;;;5.50;4.70;;;13.60;99.90;;;;;;4941416;29;20493;-68
2022/05/23 12:39:49;;;;;;;5.10;4.37;;;13.60;99.90;;;;;;4938422;29;20487;-68
2022/05/23 12:42:35;;;;;;;5.20;4.80;;;13.60;99.90;;;;;;4941160;29;20480;-68
2022/05/23 12:45:30;;;;;;;5.10;4.60;;;13.60;99.90;;;;;;4930649;29;20478;-68
2022/05/23 12:48:38;;;;;;;5.40;4.93;;;13.50;99.90;;;;;;4938303;29;20731;-68
2022/05/23 12:51:31;;;;;;;5.00;4.50;;;13.60;99.90;;;;;;4935142;29;20469;-68
2022/05/23 12:54:37;;;;;;;6.00;4.40;;;13.60;99.90;;;;;;4946188;29;20470;-68
2022/05/23 12:57:40;;;;;;;4.67;4.27;;;13.60;99.90;;;;;;4944265;29;20489;-68
2022/05/23 13:00:15;;;;;;;7.83;5.60;;;13.60;99.90;;;;;;4940480;29;20485;-68
2022/05/23 13:02:53;;;;;;;5.87;5.27;;;13.70;99.90;;;;;;4942502;29;20480;-68
2022/05/23 13:05:29;;;;;;;5.10;4.70;;;13.70;99.90;;;;;;4936303;29;20540;-67
2022/05/23 13:08:03;;;;;;;5.93;4.57;;;13.80;99.90;;;;;;4942077;29;20465;-68
2022/05/23 13:10:38;;;;;;;5.47;4.97;;;13.80;99.90;;;;;;4944426;29;20476;-68
2022/05/23 13:13:14;;;;;;;4.93;4.53;;;13.80;99.90;;;;;;4940725;29;20476;-68
2022/05/23 13:15:45;;;;;;;6.37;5.47;;;13.80;99.90;;;;;;4938222;29;20483;-67
2022/05/23 13:24:48;;;;;;;5.93;4.10;;;13.90;99.90;;;;;;4931190;29;20477;-68
2022/05/23 13:27:10;;;;;;;5.40;4.40;;;14.10;99.90;;;;;;4936131;29;20470;-68
2022/05/23 13:29:43;;;;;;;4.70;4.30;;;14.10;99.90;;;;;;4943705;29;20529;-68
2022/05/23 13:32:18;;;;;;;4.67;4.27;;;14.10;99.90;;;;;;4927696;29;20478;-68
2022/05/23 13:34:50;;;;;;;5.27;4.53;;;14.10;99.90;;;;;;4945404;29;20457;-67
2022/05/23 13:37:29;;;;;;;4.97;4.23;;;14.20;99.90;;;;;;4944188;29;20509;-67
2022/05/23 13:40:09;;;;;;;5.10;4.40;;;14.20;99.90;;;;;;4943076;29;20453;-67
2022/05/23 13:42:40;;;;;;;4.73;4.33;;;14.20;99.90;;;;;;4941607;29;20531;-68
2022/05/23 13:45:17;;;;;;;4.37;3.97;;;14.20;99.90;;;;;;4945559;29;20478;-67
2022/05/23 13:47:53;;;;;;;8.73;4.63;;;14.30;99.90;;;;;;4945086;29;20466;-68
2022/05/23 13:50:29;;;;;;;6.13;4.40;;;14.30;99.90;;;;;;4933278;29;20455;-69
2022/05/23 13:53:07;;;;;;;4.97;4.47;;;14.30;99.90;;;;;;4943701;29;20496;-68
2022/05/23 13:55:41;;;;;;;4.33;3.93;;;14.40;99.90;;;;;;4938949;29;20455;-68
2022/05/23 13:58:15;;;;;;;4.87;4.13;;;14.40;99.90;;;;;;4938364;29;20516;-68
2022/05/23 14:00:55;;;;;;;6.40;3.70;;;14.50;99.90;;;;;;4935031;29;20441;-68
2022/05/23 14:03:31;;;;;;;4.40;4.00;;;14.70;99.90;;;;;;4932620;29;20926;-67
2022/05/23 14:06:03;;;;;;;4.40;4.10;;;14.80;99.90;;;;;;4936569;29;20462;-67
2022/05/23 14:08:38;;;;;;;4.50;3.90;;;14.80;99.90;;;;;;4945185;29;20919;-67
2022/05/23 14:11:19;;;;;;;3.27;2.97;;;14.90;99.90;;;;;;4928843;29;20462;-67
2022/05/23 14:13:58;;;;;;;4.87;3.77;;;15.00;99.90;;;;;;4932019;29;20502;-67
2022/05/23 14:16:35;;;;;;;4.60;4.13;;;15.10;99.90;;;;;;4927111;29;20588;-67
2022/05/23 14:19:19;;;;;;;4.13;3.70;;;15.20;99.90;;;;;;4942676;29;20492;-67
2022/05/23 14:21:50;;;;;;;4.63;3.80;;;15.40;99.90;;;;;;4935133;29;20457;-67
2022/05/23 14:24:30;;;;;;;4.17;3.77;;;15.40;99.90;;;;;;4942140;29;20482;-67
2022/05/23 14:27:19;;;;;;;5.00;3.73;;;15.40;99.90;;;;;;4941437;29;20462;-68
2022/05/23 14:30:10;;;;;;;4.20;3.90;;;15.50;99.90;;;;;;4932262;29;20461;-67
2022/05/23 14:32:44;;;;;;;3.80;3.50;;;15.50;99.90;;;;;;4941845;29;20949;-67
2022/05/23 14:35:20;;;;;;;4.20;3.90;;;15.50;99.90;;;;;;4935022;29;20501;-68
2022/05/23 14:37:56;;;;;;;3.60;3.30;;;15.50;99.90;;;;;;4937231;29;20490;-67